createdAt,value
2023-01-07T00:01:46.871Z,28.92
2023-01-07T00:04:19.659Z,17.33
2023-01-07T00:06:54.282Z,23.65
2023-01-07T00:09:24.833Z,18.40
2023-01-07T00:11:54.738Z,8.77
2023-01-07T00:14:24.022Z,5.93
2023-01-07T00:16:53.894Z,14.32
2023-01-07T00:19:30.686Z,6.20
2023-01-07T00:22:01.650Z,3.95
2023-01-07T00:24:30.867Z,4.45
2023-01-07T00:27:00.392Z,7.85
2023-01-07T00:29:29.451Z,12.15
2023-01-07T00:31:58.445Z,6.28
2023-01-07T00:34:30.207Z,13.50
2023-01-07T00:37:19.506Z,4.85
2023-01-07T00:39:50.218Z,10.95
2023-01-07T00:42:48.562Z,13.27
2023-01-07T00:45:17.805Z,3.75
2023-01-07T00:47:47.392Z,9.60
2023-01-07T00:50:17.836Z,12.88
2023-01-07T00:52:46.801Z,11.00
2023-01-07T00:55:16.431Z,8.18
2023-01-07T00:57:46.332Z,15.27
2023-01-07T01:00:18.257Z,21.45
2023-01-07T01:02:48.431Z,25.25
2023-01-07T01:05:19.563Z,7.60
2023-01-07T01:07:49.135Z,12.73
2023-01-07T01:10:20.255Z,19.20
2023-01-07T01:12:50.542Z,17.00
2023-01-07T01:15:20.057Z,10.70
2023-01-07T01:17:49.505Z,5.47
2023-01-07T01:20:21.230Z,14.70
2023-01-07T01:22:50.258Z,12.07
2023-01-07T01:25:19.530Z,20.52
2023-01-07T01:27:50.280Z,26.85
2023-01-07T01:30:19.581Z,15.18
2023-01-07T01:32:48.582Z,14.13
2023-01-07T01:35:19.037Z,16.35
2023-01-07T01:37:47.697Z,9.88
2023-01-07T01:40:17.068Z,17.67
2023-01-07T01:42:46.395Z,6.88
2023-01-07T01:45:15.391Z,24.50
2023-01-07T01:47:48.444Z,36.33
2023-01-07T01:50:24.543Z,26.27
2023-01-07T01:52:59.988Z,31.30
2023-01-07T01:55:32.737Z,29.77
2023-01-07T01:58:04.099Z,23.25
2023-01-07T02:00:34.415Z,13.82
2023-01-07T02:03:06.372Z,6.35
2023-01-07T02:05:42.009Z,2.78
2023-01-07T02:08:11.223Z,3.70
2023-01-07T02:10:41.235Z,3.78
2023-01-07T02:13:32.781Z,6.75
2023-01-07T02:16:10.079Z,4.10
2023-01-07T02:18:53.286Z,3.92
2023-01-07T02:21:41.395Z,3.13
2023-01-07T02:24:43.961Z,3.10
2023-01-07T02:27:23.259Z,3.25
2023-01-07T02:30:28.690Z,2.20
2023-01-07T02:33:23.816Z,7.47
2023-01-07T02:36:08.200Z,6.05
2023-01-07T02:41:19.752Z,18.60
2023-01-07T02:43:58.772Z,21.73
2023-01-07T02:46:33.141Z,18.63
2023-01-07T02:49:08.856Z,5.63
2023-01-07T02:51:39.369Z,7.68
2023-01-07T02:54:12.559Z,4.38
2023-01-07T02:56:54.106Z,2.53
2023-01-07T02:59:41.975Z,2.05
2023-01-07T03:02:29.028Z,2.00
2023-01-07T03:05:30.038Z,1.70
2023-01-07T03:08:14.789Z,4.28
2023-01-07T03:10:52.386Z,5.60
2023-01-07T03:13:26.049Z,2.40
2023-01-07T03:16:02.083Z,6.15
2023-01-07T03:18:34.247Z,76.50
2023-01-07T03:21:08.969Z,21.48
2023-01-07T03:23:42.992Z,12.68
2023-01-07T03:28:42.725Z,45.50
2023-01-07T03:31:15.216Z,22.63
2023-01-07T03:33:52.061Z,7.63
2023-01-07T03:36:25.481Z,3.15
2023-01-07T03:38:55.019Z,2.30
2023-01-07T03:41:40.491Z,1.80
2023-01-07T03:44:08.999Z,4.18
2023-01-07T03:46:38.953Z,8.63
2023-01-07T03:49:08.159Z,2.90
2023-01-07T03:51:40.434Z,4.32
2023-01-07T03:54:08.736Z,6.97
2023-01-07T03:56:37.310Z,8.38
2023-01-07T03:59:05.956Z,6.47
2023-01-07T04:01:35.201Z,9.05
2023-01-07T04:04:04.948Z,4.53
2023-01-07T04:06:33.281Z,5.53
2023-01-07T04:09:03.844Z,4.88
2023-01-07T04:11:32.170Z,5.32
2023-01-07T04:14:00.972Z,3.65
2023-01-07T04:16:30.967Z,1.75
2023-01-07T04:18:59.536Z,1.70
2023-01-07T04:21:27.928Z,1.63
2023-01-07T04:24:00.697Z,2.17
2023-01-07T04:26:32.326Z,1.67
2023-01-07T04:29:00.804Z,1.70
2023-01-07T04:31:29.173Z,2.50
2023-01-07T04:33:57.606Z,2.80
2023-01-07T04:36:26.170Z,1.83
2023-01-07T04:38:54.454Z,2.05
2023-01-07T04:41:22.977Z,1.92
2023-01-07T04:43:53.437Z,2.08
2023-01-07T04:46:21.743Z,1.75
2023-01-07T04:48:49.886Z,1.85
2023-01-07T04:51:20.467Z,2.13
2023-01-07T04:53:49.162Z,2.38
2023-01-07T04:56:17.541Z,2.33
2023-01-07T04:58:45.803Z,2.40
2023-01-07T05:01:16.545Z,2.10
2023-01-07T05:03:45.115Z,2.45
2023-01-07T05:06:13.552Z,1.58
2023-01-07T05:08:41.809Z,2.13
2023-01-07T05:11:10.287Z,2.22
2023-01-07T05:13:40.006Z,17.35
2023-01-07T05:16:08.717Z,6.13
2023-01-07T05:18:38.378Z,4.32
2023-01-07T05:21:07.031Z,20.13
2023-01-07T05:23:35.240Z,3.10
2023-01-07T05:26:03.416Z,9.35
2023-01-07T05:28:32.332Z,2.47
2023-01-07T05:31:00.542Z,1.80
2023-01-07T05:33:29.445Z,8.63
2023-01-07T05:35:59.041Z,3.70
2023-01-07T05:38:27.387Z,2.60
2023-01-07T05:40:55.789Z,4.47
2023-01-07T05:43:25.215Z,2.90
2023-01-07T05:45:53.414Z,6.57
2023-01-07T05:48:21.767Z,2.47
2023-01-07T05:50:50.267Z,1.92
2023-01-07T05:53:19.865Z,2.53
2023-01-07T05:55:48.258Z,2.00
2023-01-07T05:58:16.731Z,2.33
2023-01-07T06:00:45.191Z,2.05
2023-01-07T06:03:13.823Z,1.95
2023-01-07T06:05:43.278Z,2.08
2023-01-07T06:08:11.760Z,1.77
2023-01-07T06:10:41.582Z,2.00
2023-01-07T06:13:10.164Z,2.03
2023-01-07T06:15:38.320Z,2.38
2023-01-07T06:18:07.033Z,1.77
2023-01-07T06:20:35.747Z,1.63
2023-01-07T06:23:05.102Z,2.13
2023-01-07T06:25:33.320Z,1.83
2023-01-07T06:28:03.635Z,1.80
2023-01-07T06:30:31.829Z,2.25
2023-01-07T06:33:00.451Z,2.00
2023-01-07T06:35:28.728Z,2.50
2023-01-07T06:37:57.183Z,2.55
2023-01-07T06:40:26.017Z,2.55
2023-01-07T06:42:54.193Z,2.72
2023-01-07T06:45:25.125Z,1.80
2023-01-07T06:47:53.518Z,1.98
2023-01-07T06:50:21.975Z,2.33
2023-01-07T06:52:50.296Z,2.30
2023-01-07T06:55:19.139Z,2.50
2023-01-07T06:57:47.549Z,2.20
2023-01-07T07:00:17.050Z,2.17
2023-01-07T07:02:47.443Z,2.53
2023-01-07T07:05:16.083Z,2.50
2023-01-07T07:07:44.387Z,3.05
2023-01-07T07:10:13.338Z,2.40
2023-01-07T07:12:41.738Z,2.15
2023-01-07T07:15:10.830Z,3.20
2023-01-07T07:17:39.723Z,3.22
2023-01-07T07:20:11.732Z,2.65
2023-01-07T07:22:40.103Z,2.85
2023-01-07T07:25:09.101Z,2.50
2023-01-07T07:27:37.883Z,3.00
2023-01-07T07:30:08.638Z,2.63
2023-01-07T07:32:37.392Z,2.13
2023-01-07T07:35:06.584Z,2.75
2023-01-07T07:37:37.123Z,2.72
2023-01-07T07:40:05.967Z,2.45
2023-01-07T07:43:10.192Z,2.38
2023-01-07T07:45:23.542Z,2.67
2023-01-07T07:47:52.137Z,2.50
2023-01-07T07:50:20.744Z,2.88
2023-01-07T07:52:51.321Z,2.95
2023-01-07T07:55:26.160Z,2.78
2023-01-07T07:57:55.558Z,2.80
2023-01-07T08:00:24.148Z,2.75
2023-01-07T08:02:52.413Z,2.55
2023-01-07T08:05:20.769Z,3.30
2023-01-07T08:07:50.586Z,3.15
2023-01-07T08:10:21.052Z,2.92
2023-01-07T08:12:50.785Z,2.90
2023-01-07T08:15:19.760Z,4.32
2023-01-07T08:17:48.277Z,2.70
2023-01-07T08:20:16.905Z,2.72
2023-01-07T08:22:47.224Z,3.50
2023-01-07T08:25:17.448Z,3.00
2023-01-07T08:27:45.935Z,2.70
2023-01-07T08:30:14.632Z,3.25
2023-01-07T08:32:43.415Z,3.63
2023-01-07T08:35:12.203Z,3.50
2023-01-07T08:37:41.260Z,3.45
2023-01-07T08:40:11.778Z,3.33
2023-01-07T08:42:42.897Z,2.95
2023-01-07T08:45:12.956Z,3.38
2023-01-07T08:47:41.476Z,3.28
2023-01-07T08:50:10.652Z,2.83
2023-01-07T08:52:41.295Z,3.17
2023-01-07T08:55:10.439Z,3.90
2023-01-07T08:57:38.733Z,2.42
2023-01-07T09:00:10.469Z,2.58
2023-01-07T09:02:38.909Z,2.63
2023-01-07T09:05:08.620Z,2.60
2023-01-07T09:07:37.475Z,2.33
2023-01-07T09:10:08.304Z,2.80
2023-01-07T09:12:37.472Z,2.50
2023-01-07T09:15:06.949Z,2.00
2023-01-07T09:17:37.495Z,3.13
2023-01-07T09:20:07.605Z,2.47
2023-01-07T09:22:37.809Z,2.25
2023-01-07T09:25:07.515Z,2.35
2023-01-07T09:27:36.484Z,2.50
2023-01-07T09:30:05.463Z,2.30
2023-01-07T09:32:36.816Z,2.60
2023-01-07T09:35:06.021Z,2.40
2023-01-07T09:37:34.665Z,2.83
2023-01-07T09:40:03.187Z,2.13
2023-01-07T09:42:39.781Z,2.35
2023-01-07T09:45:18.722Z,2.08
2023-01-07T09:47:51.821Z,2.58
2023-01-07T09:50:34.849Z,2.25
2023-01-07T09:53:09.673Z,1.95
2023-01-07T09:56:11.614Z,1.88
2023-01-07T09:58:29.199Z,3.40
2023-01-07T10:01:02.058Z,2.92
2023-01-07T10:03:49.440Z,2.70
2023-01-07T10:06:38.427Z,2.05
2023-01-07T10:09:23.318Z,1.60
2023-01-07T10:12:03.387Z,1.50
2023-01-07T10:14:45.783Z,1.42
2023-01-07T10:17:24.804Z,2.22
2023-01-07T10:20:02.483Z,2.42
2023-01-07T10:22:37.266Z,2.33
2023-01-07T10:25:15.547Z,1.70
2023-01-07T10:27:46.983Z,1.67
2023-01-07T10:30:21.557Z,1.70
2023-01-07T10:32:55.170Z,1.67
2023-01-07T10:35:30.556Z,1.80
2023-01-07T10:38:05.539Z,1.67
2023-01-07T10:40:44.484Z,1.05
2023-01-07T10:43:29.731Z,1.80
2023-01-07T10:46:16.418Z,1.48
2023-01-07T10:49:13.463Z,1.80
2023-01-07T10:52:11.754Z,1.70
2023-01-07T10:55:21.803Z,2.28
2023-01-07T10:57:51.022Z,1.95
2023-01-07T11:00:20.897Z,1.98
2023-01-07T11:02:59.170Z,1.80
2023-01-07T11:05:38.179Z,2.00
2023-01-07T11:08:14.807Z,3.15
2023-01-07T11:10:44.369Z,5.18
2023-01-07T11:13:17.862Z,1.98
2023-01-07T11:15:51.933Z,2.03
2023-01-07T11:18:23.615Z,2.03
2023-01-07T11:20:53.431Z,1.77
2023-01-07T11:23:32.278Z,2.20
2023-01-07T11:26:12.272Z,2.10
2023-01-07T11:28:50.110Z,1.75
2023-01-07T11:31:19.698Z,2.40
2023-01-07T11:34:02.244Z,2.92
2023-01-07T11:39:22.157Z,2.70
2023-01-07T11:41:56.393Z,2.08
2023-01-07T11:44:27.660Z,1.55
2023-01-07T11:46:57.275Z,1.65
2023-01-07T11:49:29.391Z,1.40
2023-01-07T11:51:59.019Z,1.83
2023-01-07T11:54:32.180Z,2.28
2023-01-07T11:57:15.214Z,4.30
2023-01-07T11:59:44.148Z,3.28
2023-01-07T12:02:26.025Z,1.90
2023-01-07T12:05:14.704Z,1.52
2023-01-07T12:07:47.049Z,1.50
2023-01-07T12:10:32.938Z,2.42
2023-01-07T12:13:04.924Z,1.52
2023-01-07T12:15:37.933Z,1.95
2023-01-07T12:18:39.547Z,1.92
2023-01-07T12:21:41.534Z,1.73
2023-01-07T12:24:27.794Z,2.08
2023-01-07T12:27:09.606Z,2.55
2023-01-07T12:29:48.297Z,3.55
2023-01-07T12:32:32.794Z,3.22
2023-01-07T12:35:15.227Z,1.25
2023-01-07T12:37:49.379Z,1.17
2023-01-07T12:40:32.000Z,1.40
2023-01-07T12:43:08.011Z,1.15
2023-01-07T12:45:42.978Z,1.70
2023-01-07T12:48:22.383Z,1.10
2023-01-07T12:50:55.233Z,1.10
2023-01-07T12:53:30.644Z,1.48
2023-01-07T12:56:08.086Z,1.30
2023-01-07T12:58:53.104Z,2.17
2023-01-07T13:01:30.485Z,1.38
2023-01-07T13:04:10.547Z,2.17
2023-01-07T13:06:46.662Z,1.38
2023-01-07T13:09:24.390Z,1.98
2023-01-07T13:12:41.128Z,1.92
2023-01-07T13:15:12.797Z,2.85
2023-01-07T13:17:45.897Z,2.83
2023-01-07T13:20:16.662Z,2.20
2023-01-07T13:22:51.051Z,1.98
2023-01-07T13:25:33.153Z,1.80
2023-01-07T13:28:38.050Z,2.17
2023-01-07T13:31:34.632Z,2.35
2023-01-07T13:34:15.869Z,3.03
2023-01-07T13:36:51.551Z,2.05
2023-01-07T13:39:42.077Z,2.97
2023-01-07T13:42:29.700Z,1.77
2023-01-07T13:45:03.722Z,1.40
2023-01-07T13:50:24.132Z,2.92
2023-01-07T13:53:01.797Z,3.90
2023-01-07T13:55:38.504Z,2.70
2023-01-07T13:58:54.164Z,5.25
2023-01-07T14:01:23.884Z,3.90
2023-01-07T14:03:55.635Z,3.67
2023-01-07T14:06:43.014Z,3.35
2023-01-07T14:09:37.473Z,1.98
2023-01-07T14:12:41.551Z,2.92
2023-01-07T14:15:29.685Z,1.52
2023-01-07T14:18:32.765Z,1.58
2023-01-07T14:21:16.195Z,1.63
2023-01-07T14:23:55.037Z,2.33
2023-01-07T14:26:34.764Z,1.83
2023-01-07T14:29:35.317Z,1.40
2023-01-07T14:32:33.111Z,1.75
2023-01-07T14:35:07.693Z,1.70
2023-01-07T14:37:40.079Z,1.88
2023-01-07T14:41:03.036Z,1.80
2023-01-07T14:44:06.418Z,1.40
2023-01-07T14:46:54.549Z,1.48
2023-01-07T14:50:07.506Z,1.63
2023-01-07T14:53:32.448Z,1.63
2023-01-07T14:56:28.840Z,2.03
2023-01-07T14:59:32.556Z,2.08
2023-01-07T15:02:31.707Z,2.35
2023-01-07T15:05:45.735Z,2.78
2023-01-07T15:08:37.487Z,2.60
2023-01-07T15:11:25.995Z,2.50
2023-01-07T15:14:20.176Z,3.00
2023-01-07T15:16:51.554Z,2.67
2023-01-07T15:19:21.935Z,3.38
2023-01-07T15:22:03.578Z,2.42
2023-01-07T15:24:41.972Z,2.05
2023-01-07T15:27:20.141Z,2.13
2023-01-07T15:29:58.273Z,2.38
2023-01-07T15:32:41.820Z,2.60
2023-01-07T15:35:17.307Z,2.73
2023-01-07T15:37:48.301Z,2.72
2023-01-07T15:40:19.971Z,4.75
2023-01-07T15:42:51.775Z,4.07
2023-01-07T15:45:25.039Z,4.72
2023-01-07T15:47:53.462Z,5.35
2023-01-07T15:50:28.386Z,4.43
2023-01-07T15:53:00.278Z,4.85
2023-01-07T15:55:31.970Z,5.07
2023-01-07T15:58:05.768Z,5.43
2023-01-07T16:00:37.020Z,4.65
2023-01-07T16:03:06.783Z,4.40
2023-01-07T16:05:38.904Z,5.43
2023-01-07T16:08:08.760Z,4.03
2023-01-07T16:10:37.921Z,4.00
2023-01-07T16:13:08.046Z,3.42
2023-01-07T16:15:41.534Z,3.40
2023-01-07T16:18:19.632Z,3.00
2023-01-07T16:20:56.058Z,2.65
2023-01-07T16:23:26.397Z,4.18
2023-01-07T16:25:58.801Z,7.45
2023-01-07T16:28:32.876Z,5.97
2023-01-07T16:33:33.864Z,6.60
2023-01-07T16:36:06.744Z,5.40
2023-01-07T16:38:38.010Z,5.95
2023-01-07T16:41:06.867Z,6.55
2023-01-07T16:43:45.027Z,6.72
2023-01-07T16:46:25.074Z,8.00
2023-01-07T16:49:23.187Z,7.03
2023-01-07T16:51:53.782Z,8.63
2023-01-07T16:54:34.598Z,8.43
2023-01-07T16:57:05.669Z,8.32
2023-01-07T16:59:36.098Z,8.95
2023-01-07T17:02:28.881Z,13.52
2023-01-07T17:05:09.754Z,11.02
2023-01-07T17:07:40.018Z,10.40
2023-01-07T17:10:09.547Z,10.65
2023-01-07T17:12:40.766Z,10.85
2023-01-07T17:15:34.401Z,7.63
2023-01-07T17:18:28.872Z,9.07
2023-01-07T17:20:59.095Z,7.28
2023-01-07T17:23:41.526Z,6.28
2023-01-07T17:26:20.114Z,6.25
2023-01-07T17:28:51.832Z,6.28
2023-01-07T17:31:21.116Z,6.97
2023-01-07T17:33:51.728Z,7.28
2023-01-07T17:36:22.583Z,5.60
2023-01-07T17:38:51.217Z,5.20
2023-01-07T17:41:38.589Z,4.18
2023-01-07T17:44:11.667Z,5.07
2023-01-07T17:46:40.205Z,5.57
2023-01-07T17:49:11.064Z,6.13
2023-01-07T17:51:42.015Z,6.32
2023-01-07T17:54:20.532Z,4.05
2023-01-07T17:56:50.583Z,3.58
2023-01-07T17:59:50.488Z,3.72
2023-01-07T18:02:21.690Z,3.90
2023-01-07T18:04:51.574Z,3.28
2023-01-07T18:07:20.034Z,3.45
2023-01-07T18:09:48.432Z,3.20
2023-01-07T18:12:33.879Z,4.20
2023-01-07T18:15:04.122Z,3.55
2023-01-07T18:17:32.376Z,3.55
2023-01-07T18:20:02.069Z,3.40
2023-01-07T18:22:30.947Z,3.60
2023-01-07T18:24:59.366Z,3.85
2023-01-07T18:27:27.850Z,4.38
2023-01-07T18:29:57.062Z,5.00
2023-01-07T18:32:25.423Z,7.20
2023-01-07T18:34:54.029Z,8.52
2023-01-07T18:37:24.164Z,6.43
2023-01-07T18:39:52.282Z,5.30
2023-01-07T18:42:20.750Z,5.47
2023-01-07T18:44:49.093Z,4.28
2023-01-07T18:47:17.393Z,4.57
2023-01-07T18:49:46.356Z,4.82
2023-01-07T18:52:15.170Z,4.78
2023-01-07T18:54:46.191Z,5.90
2023-01-07T18:57:15.936Z,5.35
2023-01-07T18:59:44.314Z,5.55
2023-01-07T19:02:16.735Z,4.20
2023-01-07T19:04:45.284Z,5.18
2023-01-07T19:07:14.571Z,4.60
2023-01-07T19:09:44.387Z,4.70
2023-01-07T19:12:13.596Z,4.40
2023-01-07T19:14:42.534Z,4.38
2023-01-07T19:17:11.606Z,4.60
2023-01-07T19:19:47.826Z,4.25
2023-01-07T19:22:17.176Z,3.85
2023-01-07T19:24:47.363Z,3.90
2023-01-07T19:27:15.793Z,4.75
2023-01-07T19:29:44.102Z,4.50
2023-01-07T19:32:12.549Z,4.22
2023-01-07T19:34:41.362Z,3.97
2023-01-07T19:37:10.471Z,3.78
2023-01-07T19:39:40.236Z,3.72
2023-01-07T19:42:13.166Z,4.40
2023-01-07T19:44:41.865Z,4.07
2023-01-07T19:47:10.667Z,4.07
2023-01-07T19:49:39.504Z,3.63
2023-01-07T19:52:08.328Z,3.55
2023-01-07T19:54:36.979Z,4.10
2023-01-07T19:57:05.508Z,4.38
2023-01-07T19:59:35.532Z,3.83
2023-01-07T20:02:06.026Z,3.50
2023-01-07T20:04:34.928Z,4.38
2023-01-07T20:07:04.911Z,4.22
2023-01-07T20:09:34.602Z,3.70
2023-01-07T20:12:03.361Z,4.32
2023-01-07T20:14:32.919Z,4.18
2023-01-07T20:17:03.133Z,4.68
2023-01-07T20:19:31.697Z,4.53
2023-01-07T20:22:01.082Z,3.83
2023-01-07T20:24:29.964Z,4.55
2023-01-07T20:26:58.804Z,4.55
2023-01-07T20:29:27.389Z,4.65
2023-01-07T20:31:56.852Z,4.65
2023-01-07T20:34:26.876Z,4.22
2023-01-07T20:36:55.995Z,4.13
2023-01-07T20:39:25.075Z,5.20
2023-01-07T20:41:54.622Z,7.03
2023-01-07T20:44:24.337Z,4.88
2023-01-07T20:46:58.981Z,7.97
2023-01-07T20:49:32.321Z,7.07
2023-01-07T20:52:02.177Z,4.13
2023-01-07T20:54:31.455Z,3.90
2023-01-07T20:57:00.418Z,4.50
2023-01-07T20:59:31.726Z,3.80
2023-01-07T21:02:02.194Z,4.47
2023-01-07T21:04:32.907Z,4.78
2023-01-07T21:07:02.794Z,5.72
2023-01-07T21:09:31.600Z,5.15
2023-01-07T21:12:00.174Z,3.97
2023-01-07T21:14:30.706Z,3.75
2023-01-07T21:16:59.248Z,4.35
2023-01-07T21:19:29.430Z,4.30
2023-01-07T21:22:00.785Z,4.43
2023-01-07T21:24:29.620Z,3.20
2023-01-07T21:26:58.146Z,4.43
2023-01-07T21:29:26.869Z,5.78
2023-01-07T21:31:56.097Z,4.82
2023-01-07T21:34:25.051Z,4.97
2023-01-07T21:36:53.732Z,6.18
2023-01-07T21:39:24.680Z,5.30
2023-01-07T21:41:55.197Z,4.80
2023-01-07T21:44:24.409Z,5.63
2023-01-07T21:46:53.235Z,6.22
2023-01-07T21:49:39.336Z,4.63
2023-01-07T21:52:08.451Z,5.20
2023-01-07T21:54:39.192Z,5.15
2023-01-07T21:57:08.228Z,11.98
2023-01-07T21:59:37.948Z,10.15
2023-01-07T22:02:07.268Z,7.15
2023-01-07T22:04:36.330Z,7.20
2023-01-07T22:07:05.502Z,5.97
2023-01-07T22:09:33.947Z,6.35
2023-01-07T22:12:04.480Z,6.60
2023-01-07T22:14:33.251Z,6.38
2023-01-07T22:17:02.269Z,4.95
2023-01-07T22:19:32.685Z,5.68
2023-01-07T22:22:01.698Z,4.75
2023-01-07T22:24:30.327Z,8.13
2023-01-07T22:26:59.416Z,10.50
2023-01-07T22:29:31.234Z,9.10
2023-01-07T22:32:00.530Z,18.15
2023-01-07T22:34:29.622Z,12.18
2023-01-07T22:37:04.867Z,6.65
2023-01-07T22:39:39.326Z,11.02
2023-01-07T22:42:12.335Z,7.72
2023-01-07T22:44:46.931Z,7.30
2023-01-07T22:47:19.085Z,6.20
2023-01-07T22:49:50.017Z,8.02
2023-01-07T22:52:20.240Z,5.88
2023-01-07T22:54:50.012Z,8.38
2023-01-07T22:57:18.931Z,7.43
2023-01-07T22:59:49.351Z,6.82
2023-01-07T23:02:18.947Z,7.32
2023-01-07T23:04:48.879Z,7.13
2023-01-07T23:07:17.789Z,8.70
2023-01-07T23:09:50.128Z,7.00
2023-01-07T23:12:19.611Z,7.88
2023-01-07T23:14:51.561Z,8.65
2023-01-07T23:17:20.380Z,7.03
2023-01-07T23:19:51.034Z,10.13
2023-01-07T23:22:19.986Z,11.18
2023-01-07T23:24:48.892Z,12.70
2023-01-07T23:27:17.999Z,7.55
2023-01-07T23:29:46.681Z,10.68
2023-01-07T23:32:17.832Z,7.88
2023-01-07T23:34:46.627Z,16.15
2023-01-07T23:37:15.608Z,12.23
2023-01-07T23:39:44.879Z,9.48
2023-01-07T23:42:16.089Z,8.02
2023-01-07T23:44:44.826Z,7.03
2023-01-07T23:47:13.835Z,8.95
2023-01-07T23:49:45.726Z,7.85
2023-01-07T23:52:14.344Z,9.50
2023-01-07T23:54:43.427Z,8.23
2023-01-07T23:57:12.857Z,11.02
2023-01-07T23:59:42.447Z,9.75
